createdAt,value
2018-10-16T00:04:28.183Z,12.80
2018-10-16T00:09:31.398Z,12.80
2018-10-16T00:14:34.496Z,12.70
2018-10-16T00:19:37.697Z,12.60
2018-10-16T00:24:40.846Z,12.60
2018-10-16T00:29:44.052Z,12.50
2018-10-16T00:34:47.236Z,12.50
2018-10-16T00:39:50.374Z,12.50
2018-10-16T00:44:53.513Z,12.50
2018-10-16T00:49:56.704Z,12.40
2018-10-16T00:54:59.904Z,12.50
2018-10-16T01:00:02.974Z,12.50
2018-10-16T01:05:07.195Z,12.40
2018-10-16T01:10:11.146Z,12.30
2018-10-16T01:15:14.385Z,12.20
2018-10-16T01:20:17.509Z,12.20
2018-10-16T01:25:20.723Z,12.30
2018-10-16T01:30:23.854Z,12.30
2018-10-16T01:35:27.062Z,12.30
2018-10-16T01:40:30.268Z,12.20
2018-10-16T01:45:33.504Z,12.10
2018-10-16T01:50:36.693Z,12.00
2018-10-16T01:55:39.850Z,12.00
2018-10-16T02:00:42.991Z,12.00
2018-10-16T02:05:46.158Z,11.90
2018-10-16T02:10:49.370Z,11.90
2018-10-16T02:15:52.497Z,11.90
2018-10-16T02:20:55.650Z,11.90
2018-10-16T02:25:58.793Z,11.80
2018-10-16T02:31:01.931Z,11.70
2018-10-16T02:36:05.196Z,11.70
2018-10-16T02:41:08.372Z,11.70
2018-10-16T02:46:11.569Z,11.70
2018-10-16T02:51:14.712Z,11.60
2018-10-16T02:56:17.863Z,11.50
2018-10-16T03:01:21.023Z,11.50
2018-10-16T03:06:24.235Z,11.40
2018-10-16T03:11:27.406Z,11.40
2018-10-16T03:16:30.590Z,11.30
2018-10-16T03:21:33.793Z,11.30
2018-10-16T03:26:37.246Z,11.20
2018-10-16T03:31:40.676Z,11.30
2018-10-16T03:36:43.841Z,11.20
2018-10-16T03:41:46.981Z,11.20
2018-10-16T03:46:50.149Z,11.20
2018-10-16T03:51:53.357Z,11.20
2018-10-16T03:56:56.619Z,11.20
2018-10-16T04:01:59.812Z,11.10
2018-10-16T04:07:03.032Z,11.10
2018-10-16T04:12:06.508Z,11.10
2018-10-16T04:17:09.735Z,11.10
2018-10-16T04:22:12.873Z,11.10
2018-10-16T04:27:16.000Z,11.00
2018-10-16T04:32:19.165Z,11.00
2018-10-16T04:37:22.405Z,10.90
2018-10-16T04:42:25.566Z,10.90
2018-10-16T04:47:28.769Z,10.90
2018-10-16T04:52:31.978Z,10.90
2018-10-16T04:57:35.248Z,10.90
2018-10-16T05:02:39.857Z,10.80
2018-10-16T05:07:42.999Z,10.90
2018-10-16T05:12:46.173Z,10.80
2018-10-16T05:17:49.345Z,10.70
2018-10-16T05:22:52.830Z,10.60
2018-10-16T05:27:56.437Z,10.50
2018-10-16T05:32:59.620Z,10.40
2018-10-16T05:38:02.817Z,10.50
2018-10-16T05:43:06.521Z,10.50
2018-10-16T05:48:09.689Z,10.50
2018-10-16T05:53:12.798Z,10.50
2018-10-16T05:58:15.965Z,10.50
2018-10-16T06:03:19.128Z,10.50
2018-10-16T06:08:22.347Z,10.40
2018-10-16T06:13:25.547Z,10.50
2018-10-16T06:18:28.697Z,10.50
2018-10-16T06:23:31.850Z,10.60
2018-10-16T06:28:34.974Z,10.80
2018-10-16T06:33:38.133Z,11.10
2018-10-16T06:38:41.310Z,11.50
2018-10-16T06:43:44.381Z,11.80
2018-10-16T06:48:47.798Z,12.20
2018-10-16T06:53:50.628Z,12.70
2018-10-16T06:58:53.742Z,13.30
2018-10-16T07:03:56.911Z,14.10
2018-10-16T07:09:00.070Z,15.10
2018-10-16T07:14:03.290Z,15.90
2018-10-16T07:19:06.904Z,16.60
2018-10-16T07:24:10.202Z,17.10
2018-10-16T07:29:13.385Z,17.40
2018-10-16T07:34:16.689Z,16.70
2018-10-16T07:39:19.846Z,16.70
2018-10-16T07:44:22.984Z,16.10
2018-10-16T07:49:26.159Z,15.50
2018-10-16T07:54:29.351Z,14.90
2018-10-16T07:59:32.564Z,14.40
2018-10-16T08:04:35.674Z,14.00
2018-10-16T08:09:38.834Z,14.20
2018-10-16T08:14:41.999Z,14.20
2018-10-16T08:19:45.133Z,14.30
2018-10-16T08:24:48.233Z,14.40
2018-10-16T08:29:51.475Z,14.50
2018-10-16T08:34:54.794Z,14.50
2018-10-16T08:39:59.281Z,14.70
2018-10-16T08:45:29.332Z,14.80
2018-10-16T08:51:09.158Z,15.00
2018-10-16T08:56:12.242Z,15.20
2018-10-16T09:01:15.418Z,15.30
2018-10-16T09:06:18.620Z,15.40
2018-10-16T09:11:21.739Z,15.50
2018-10-16T09:16:25.092Z,15.70
2018-10-16T09:21:28.250Z,16.00
2018-10-16T09:26:31.438Z,16.60
2018-10-16T09:31:37.056Z,17.60
2018-10-16T09:36:40.208Z,19.20
2018-10-16T09:41:43.385Z,21.10
2018-10-16T09:46:46.495Z,23.00
2018-10-16T09:51:49.680Z,24.80
2018-10-16T09:56:52.828Z,27.00
2018-10-16T10:01:56.305Z,26.90
2018-10-16T10:06:59.468Z,25.20
2018-10-16T10:12:02.627Z,23.90
2018-10-16T10:17:05.774Z,24.20
2018-10-16T10:22:08.903Z,25.40
2018-10-16T10:27:12.108Z,27.30
2018-10-16T10:32:15.197Z,28.20
2018-10-16T10:37:18.395Z,29.30
2018-10-16T10:42:21.721Z,30.30
2018-10-16T10:47:24.793Z,31.10
2018-10-16T10:52:27.959Z,31.30
2018-10-16T10:57:31.117Z,31.50
2018-10-16T11:02:34.352Z,32.60
2018-10-16T11:07:37.438Z,32.20
2018-10-16T11:12:41.307Z,32.40
2018-10-16T11:17:44.436Z,32.40
2018-10-16T11:22:47.597Z,32.00
2018-10-16T11:27:50.757Z,32.50
2018-10-16T11:32:53.883Z,33.10
2018-10-16T11:37:57.028Z,33.40
2018-10-16T11:43:00.203Z,33.70
2018-10-16T11:48:03.341Z,34.00
2018-10-16T11:53:06.550Z,33.90
2018-10-16T11:58:09.765Z,34.20
2018-10-16T12:03:12.942Z,32.50
2018-10-16T12:08:16.199Z,31.60
2018-10-16T12:13:19.298Z,32.50
2018-10-16T12:18:25.543Z,33.30
2018-10-16T12:23:28.636Z,32.50
2018-10-16T12:28:31.812Z,32.30
2018-10-16T12:33:35.024Z,32.50
2018-10-16T12:38:38.262Z,32.40
2018-10-16T12:43:41.505Z,32.50
2018-10-16T12:48:44.472Z,32.30
2018-10-16T12:53:47.675Z,32.50
2018-10-16T12:58:50.846Z,32.30
2018-10-16T13:03:54.064Z,32.30
2018-10-16T13:08:57.294Z,31.90
2018-10-16T13:14:00.428Z,30.90
2018-10-16T13:19:03.622Z,29.60
2018-10-16T13:24:06.840Z,28.80
2018-10-16T13:29:10.031Z,28.50
2018-10-16T13:34:13.162Z,27.90
2018-10-16T13:39:16.271Z,27.30
2018-10-16T13:44:19.412Z,26.80
2018-10-16T13:49:22.570Z,26.20
2018-10-16T13:54:25.665Z,25.80
2018-10-16T13:59:28.866Z,25.50
2018-10-16T14:04:32.032Z,25.50
2018-10-16T14:09:35.213Z,25.50
2018-10-16T14:14:38.355Z,25.50
2018-10-16T14:19:41.514Z,25.20
2018-10-16T14:24:44.732Z,25.10
2018-10-16T14:29:47.924Z,25.00
2018-10-16T14:34:51.152Z,24.80
2018-10-16T14:39:54.328Z,24.60
2018-10-16T14:44:57.501Z,24.70
2018-10-16T14:50:00.680Z,24.60
2018-10-16T14:55:04.160Z,24.60
2018-10-16T15:00:09.145Z,24.60
2018-10-16T15:05:12.602Z,24.60
2018-10-16T15:10:15.851Z,24.40
2018-10-16T15:15:19.018Z,24.30
2018-10-16T15:20:22.118Z,24.20
2018-10-16T15:25:25.276Z,24.10
2018-10-16T15:30:28.474Z,24.10
2018-10-16T15:35:31.674Z,24.00
2018-10-16T15:40:34.856Z,23.90
2018-10-16T15:45:37.983Z,23.90
2018-10-16T15:50:41.195Z,23.80
2018-10-16T15:55:44.291Z,23.80
2018-10-16T16:00:47.453Z,23.80
2018-10-16T16:05:50.610Z,23.60
2018-10-16T16:10:53.719Z,23.50
2018-10-16T16:15:56.895Z,23.30
2018-10-16T16:21:00.017Z,23.00
2018-10-16T16:26:03.243Z,22.90
2018-10-16T16:31:06.373Z,22.70
2018-10-16T16:36:09.551Z,22.50
2018-10-16T16:41:12.661Z,22.30
2018-10-16T16:46:15.802Z,22.10
2018-10-16T16:51:18.988Z,22.00
2018-10-16T16:56:22.055Z,21.90
2018-10-16T17:01:25.181Z,21.70
2018-10-16T17:06:29.239Z,21.60
2018-10-16T17:11:32.391Z,21.50
2018-10-16T17:16:35.681Z,21.40
2018-10-16T17:21:38.929Z,21.20
2018-10-16T17:26:42.168Z,21.10
2018-10-16T17:31:45.259Z,20.90
2018-10-16T17:36:48.375Z,20.80
2018-10-16T17:41:51.561Z,20.60
2018-10-16T17:46:54.715Z,20.50
2018-10-16T17:51:57.813Z,20.40
2018-10-16T17:57:01.005Z,20.30
2018-10-16T18:02:04.295Z,20.20
2018-10-16T18:07:07.493Z,20.10
2018-10-16T18:12:10.619Z,20.10
2018-10-16T18:17:13.840Z,20.00
2018-10-16T18:22:16.976Z,19.90
2018-10-16T18:27:20.170Z,19.80
2018-10-16T18:32:23.243Z,19.80
2018-10-16T18:37:26.413Z,19.70
2018-10-16T18:42:29.564Z,19.70
2018-10-16T18:47:32.748Z,19.60
2018-10-16T18:52:35.916Z,19.60
2018-10-16T18:57:39.134Z,19.60
2018-10-16T19:02:42.657Z,19.50
2018-10-16T19:07:45.728Z,19.40
2018-10-16T19:12:48.889Z,19.40
2018-10-16T19:17:52.047Z,19.30
2018-10-16T19:22:55.218Z,19.10
2018-10-16T19:27:58.375Z,19.00
2018-10-16T19:33:01.519Z,18.80
2018-10-16T19:38:04.959Z,18.80
2018-10-16T19:43:08.108Z,18.80
2018-10-16T19:48:11.274Z,18.80
2018-10-16T19:53:14.390Z,18.70
2018-10-16T19:58:17.561Z,18.70
2018-10-16T20:03:20.665Z,18.70
2018-10-16T20:08:23.825Z,18.70
2018-10-16T20:13:27.012Z,18.70
2018-10-16T20:18:30.721Z,18.60
2018-10-16T20:23:34.167Z,18.50
2018-10-16T20:28:37.686Z,18.40
2018-10-16T20:33:41.044Z,18.30
2018-10-16T20:38:44.234Z,18.30
2018-10-16T20:43:47.447Z,18.20
2018-10-16T20:48:50.711Z,18.10
2018-10-16T20:53:54.073Z,17.90
2018-10-16T20:58:57.190Z,17.90
2018-10-16T21:04:00.603Z,18.00
2018-10-16T21:09:04.615Z,17.90
2018-10-16T21:14:07.973Z,17.80
2018-10-16T21:19:11.423Z,17.60
2018-10-16T21:24:14.557Z,17.60
2018-10-16T21:29:17.684Z,17.50
2018-10-16T21:34:20.883Z,17.40
2018-10-16T21:39:24.230Z,17.30
2018-10-16T21:44:27.452Z,17.20
2018-10-16T21:49:30.621Z,17.10
2018-10-16T21:54:33.875Z,17.00
2018-10-16T21:59:37.075Z,16.90
2018-10-16T22:04:41.062Z,16.80
2018-10-16T22:09:44.218Z,16.70
2018-10-16T22:14:47.376Z,16.60
2018-10-16T22:19:50.568Z,16.50
2018-10-16T22:24:53.707Z,16.40
2018-10-16T22:29:56.855Z,16.30
2018-10-16T22:35:00.122Z,16.30
2018-10-16T22:40:03.227Z,16.20
2018-10-16T22:45:07.096Z,16.10
2018-10-16T22:50:12.051Z,16.00
2018-10-16T22:55:15.269Z,15.90
2018-10-16T23:00:19.441Z,15.70
2018-10-16T23:05:22.603Z,15.60
2018-10-16T23:10:25.789Z,15.50
2018-10-16T23:15:28.904Z,15.40
2018-10-16T23:20:32.652Z,15.20
2018-10-16T23:25:35.707Z,15.10
2018-10-16T23:30:38.861Z,15.10
2018-10-16T23:35:42.031Z,15.00
2018-10-16T23:40:45.207Z,14.90
2018-10-16T23:45:48.466Z,14.80
2018-10-16T23:50:51.612Z,14.80
2018-10-16T23:55:54.747Z,14.70
